Tropical Cyclones
[Index]
Main Index Home Page Stock Weather Photos Extreme Storms Discussion Storm News and Storm Chasing Reports Tropical Cyclones / Hurricanes / Typhoons Weather Data and Links Wild Fires / Bushfires Weather Observation Techniques Weather Picture Catalogue Tornado Pictures and Reports Stock Video Footage and DVDs for sale
Season 1997-1998 Tropical Cyclone ZUMAN Track Map
Season 1997-1998 Summaries: [BoM-AU] [JTWC-AU] [JTWC-SIO] [JTWC-SPAC] [JTWC-SH]
<<- Previous TC | JTWC 1997-1998 Season | Next TC ->>

click for intensity scale information  Lat/long Grid: Show Hide

 Date Labels: Show Hide

Joint Typhoon Warning Centre Cyclone Data

Name: ZUMAN

28 Mar 1998 06:00 UTC to 06 Apr 1998 06:00 UTC

    date/time    lat    long     hPa   cat  kts
1998-03-28 06   14.9   172.2                  20          
1998-03-28 12   14.5   172.0                  25          
1998-03-28 18   14.0   171.6                  25          
1998-03-29 00   13.6   171.5                  25          
1998-03-29 06   13.5   171.7                  25          
1998-03-29 12   13.7   171.8                  30          
1998-03-29 18   14.0   171.3                  30          
1998-03-30 00   14.0   170.7                  35          
1998-03-30 06   14.0   170.3            1     40          
1998-03-30 12   14.0   169.7            1     45          
1998-03-30 18   14.0   169.0            2     55          
1998-03-31 00   14.0   168.4            2     65          
1998-03-31 06   14.1   167.9            2     70          
1998-03-31 12   14.3   167.4            3     80          
1998-03-31 18   14.8   166.9            4    100          
1998-04-01 00   15.3   166.3            4    100          
1998-04-01 06   15.5   166.0            3     95          
1998-04-01 12   15.6   165.7            3     90          
1998-04-01 18   15.7   165.1            3     90          
1998-04-02 00   15.7   164.2            3     90          
1998-04-02 06   15.7   163.6            3     85          
1998-04-02 12   15.6   163.0            3     85          
1998-04-02 18   15.5   162.6            3     85          
1998-04-03 00   15.5   162.2            3     85          
1998-04-03 06   15.7   161.9            3     80          
1998-04-03 12   15.9   161.7            3     80          
1998-04-03 18   16.2   161.6            3     75          
1998-04-04 00   16.8   161.7            2     65          
1998-04-04 06   17.3   162.1            2     55          
1998-04-04 12   17.8   162.6            2     55          
1998-04-04 18   18.6   163.3            1     50          
1998-04-05 00   19.3   164.0            1     50          
1998-04-05 06   20.1   164.9            1     45          
1998-04-05 12   20.9   165.9            1     45          
1998-04-05 18   21.6   167.0            1     45          
1998-04-06 00   22.7   168.5            1     45          
1998-04-06 06   24.1   170.0            1     45          
Winds are 1-min average.

Tropical cyclone tracks developed by Michael Bath using data from the Joint Typhoon Warning Centre Best Tracks and Google Maps.


[Australian Severe Weather index] [Copyright Notice] [Email Contacts] [Search This Site] [Privacy Policy]
Document: tropical_cyclone_zuman.htm Updated: 18 September 2016